Time,TemperatureF,DewpointF,PressureIn,WindDirection,WindDirectionDegrees,WindSpeedMPH,WindSpeedGustMPH,Humidity,HourlyPrecipIn,Conditions,Clouds,dailyrainin,SoftwareType,DateUTC
2013-03-22 00:08:00,8.9,5.1,30.08,NW,309,0.0,0.0,84,0.00,,---,0.00,VWS V14.01,2013-03-22 05:08:00,
2013-03-22 00:13:00,8.6,4.8,30.08,NW,309,0.0,0.0,84,0.00,,---,0.00,VWS V14.01,2013-03-22 05:13:00,
2013-03-22 00:23:00,8.5,4.7,30.08,NW,309,0.0,0.0,84,0.00,,---,0.00,VWS V14.01,2013-03-22 05:23:00,
2013-03-22 00:33:00,8.4,4.6,30.08,NW,309,0.0,0.0,84,0.00,,---,0.00,VWS V14.01,2013-03-22 05:33:00,
2013-03-22 00:38:00,8.4,4.8,30.08,NW,309,0.0,0.0,85,0.00,,---,0.00,VWS V14.01,2013-03-22 05:38:00,
2013-03-22 00:43:00,8.3,4.7,30.08,NW,309,0.0,0.0,85,0.00,,---,0.00,VWS V14.01,2013-03-22 05:43:00,
2013-03-22 00:48:00,8.3,4.5,30.08,NW,309,0.0,0.0,84,0.00,,---,0.00,VWS V14.01,2013-03-22 05:48:00,
2013-03-22 00:58:00,8.1,4.5,30.08,NW,309,0.0,0.0,85,0.00,,---,0.00,VWS V14.01,2013-03-22 05:58:00,
2013-03-22 01:03:00,7.9,4.3,30.08,NW,309,0.0,0.0,85,0.00,,---,0.00,VWS V14.01,2013-03-22 06:03:00,
2013-03-22 01:08:00,7.8,4.2,30.08,NW,309,0.0,0.0,85,0.00,,---,0.00,VWS V14.01,2013-03-22 06:08:00,
2013-03-22 01:13:00,7.6,4.0,30.08,NW,309,0.0,0.0,85,0.00,,---,0.00,VWS V14.01,2013-03-22 06:13:00,
2013-03-22 01:18:00,7.6,4.0,30.08,NW,309,0.0,0.0,85,0.00,,---,0.00,VWS V14.01,2013-03-22 06:18:00,
2013-03-22 01:23:00,7.7,4.4,30.08,NW,309,0.0,0.0,86,0.00,,---,0.00,VWS V14.01,2013-03-22 06:23:00,
2013-03-22 01:28:00,7.7,4.1,30.08,NW,309,0.0,0.0,85,0.00,,---,0.00,VWS V14.01,2013-03-22 06:28:00,
2013-03-22 01:38:00,7.5,3.9,30.08,NW,309,0.0,0.0,85,0.00,,---,0.00,VWS V14.01,2013-03-22 06:38:00,
2013-03-22 01:43:00,7.4,3.8,30.08,NW,309,0.0,0.0,85,0.00,,---,0.00,VWS V14.01,2013-03-22 06:43:00,
2013-03-22 01:48:00,6.9,3.3,30.08,NW,309,0.0,0.0,85,0.00,,---,0.00,VWS V14.01,2013-03-22 06:48:00,
2013-03-22 01:53:00,6.7,3.2,30.08,NW,309,0.0,0.0,85,0.00,,---,0.00,VWS V14.01,2013-03-22 06:53:00,
2013-03-22 01:58:00,6.7,3.4,30.08,NW,309,0.0,2.0,86,0.00,,---,0.00,VWS V14.01,2013-03-22 06:58:00,
2013-03-22 02:03:00,6.6,3.3,30.08,NW,309,0.0,0.0,86,0.00,,---,0.00,VWS V14.01,2013-03-22 07:03:00,
2013-03-22 02:13:00,7.0,4.0,30.08,NW,309,1.0,2.0,87,0.00,,---,0.00,VWS V14.01,2013-03-22 07:13:00,
2013-03-22 02:18:00,7.1,4.1,30.08,NW,309,1.0,2.0,87,0.00,,---,0.00,VWS V14.01,2013-03-22 07:18:00,
2013-03-22 02:23:00,7.4,4.3,30.09,NW,309,0.0,2.0,87,0.00,,---,0.00,VWS V14.01,2013-03-22 07:23:00,
2013-03-22 02:28:00,7.3,4.2,30.08,NW,309,0.0,2.0,87,0.00,,---,0.00,VWS V14.01,2013-03-22 07:28:00,
2013-03-22 02:33:00,7.3,4.2,30.09,NW,309,0.0,1.0,87,0.00,,---,0.00,VWS V14.01,2013-03-22 07:33:00,
2013-03-22 02:38:00,7.0,3.7,30.09,NW,309,0.0,1.0,86,0.00,,---,0.00,VWS V14.01,2013-03-22 07:38:00,
2013-03-22 02:48:00,6.7,3.4,30.09,NW,309,0.0,1.0,86,0.00,,---,0.00,VWS V14.01,2013-03-22 07:48:00,
2013-03-22 02:53:00,6.8,3.8,30.09,NW,309,0.0,0.0,87,0.00,,---,0.00,VWS V14.01,2013-03-22 07:53:00,
2013-03-22 02:58:00,6.8,3.5,30.09,NW,309,0.0,0.0,86,0.00,,---,0.00,VWS V14.01,2013-03-22 07:58:00,
2013-03-22 03:08:00,6.4,3.1,30.09,NW,309,0.0,0.0,86,0.00,,---,0.00,VWS V14.01,2013-03-22 08:08:00,
2013-03-22 03:13:00,6.5,3.2,30.09,NW,309,0.0,2.0,86,0.00,,---,0.00,VWS V14.01,2013-03-22 08:13:00,
2013-03-22 03:18:00,6.7,3.7,30.09,NW,309,0.0,0.0,87,0.00,,---,0.00,VWS V14.01,2013-03-22 08:18:00,
2013-03-22 03:23:00,6.6,3.3,30.09,NW,309,0.0,1.0,86,0.00,,---,0.00,VWS V14.01,2013-03-22 08:23:00,
2013-03-22 03:33:00,6.3,3.0,30.09,NW,309,0.0,1.0,86,0.00,,---,0.00,VWS V14.01,2013-03-22 08:33:00,
2013-03-22 03:38:00,6.3,3.0,30.09,NW,309,0.0,0.0,86,0.00,,---,0.00,VWS V14.01,2013-03-22 08:38:00,
2013-03-22 03:43:00,6.4,3.4,30.09,NW,309,0.0,0.0,87,0.00,,---,0.00,VWS V14.01,2013-03-22 08:43:00,
2013-03-22 03:48:00,6.8,3.8,30.09,NW,309,1.0,2.0,87,0.00,,---,0.00,VWS V14.01,2013-03-22 08:48:00,
2013-03-22 03:53:00,6.8,3.8,30.09,NW,309,0.0,1.0,87,0.00,,---,0.00,VWS V14.01,2013-03-22 08:53:00,
2013-03-22 03:58:00,6.8,3.8,30.09,NW,309,0.0,0.0,87,0.00,,---,0.00,VWS V14.01,2013-03-22 08:58:00,
2013-03-22 04:03:00,6.8,3.8,30.09,NW,309,2.0,2.0,87,0.00,,---,0.00,VWS V14.01,2013-03-22 09:03:00,
2013-03-22 04:08:00,6.9,3.9,30.09,NW,309,0.0,2.0,87,0.00,,---,0.00,VWS V14.01,2013-03-22 09:08:00,
2013-03-22 04:13:00,6.7,3.7,30.09,NW,309,0.0,2.0,87,0.00,,---,0.00,VWS V14.01,2013-03-22 09:13:00,
2013-03-22 04:18:00,6.4,3.4,30.09,NW,309,0.0,0.0,87,0.00,,---,0.00,VWS V14.01,2013-03-22 09:18:00,
2013-03-22 04:23:00,6.5,3.5,30.09,NW,309,1.0,2.0,87,0.00,,---,0.00,VWS V14.01,2013-03-22 09:23:00,
2013-03-22 04:33:00,6.9,4.1,30.09,NW,309,0.0,0.0,88,0.00,,---,0.00,VWS V14.01,2013-03-22 09:33:00,
2013-03-22 04:38:00,6.9,3.9,30.09,NW,309,0.0,0.0,87,0.00,,---,0.00,VWS V14.01,2013-03-22 09:38:00,
2013-03-22 04:43:00,6.7,3.7,30.09,NW,309,0.0,0.0,87,0.00,,---,0.00,VWS V14.01,2013-03-22 09:43:00,
2013-03-22 04:53:00,5.8,2.8,30.09,NW,309,0.0,0.0,87,0.00,,---,0.00,VWS V14.01,2013-03-22 09:53:00,
2013-03-22 04:58:00,5.7,2.7,30.09,NW,309,0.0,0.0,87,0.00,,---,0.00,VWS V14.01,2013-03-22 09:58:00,
2013-03-22 05:03:00,5.6,2.6,30.09,NW,309,0.0,2.0,87,0.00,,---,0.00,VWS V14.01,2013-03-22 10:03:00,
2013-03-22 05:13:00,5.9,3.1,30.09,NW,309,0.0,0.0,88,0.00,,---,0.00,VWS V14.01,2013-03-22 10:13:00,
2013-03-22 05:23:00,6.4,3.6,30.09,NW,309,0.0,0.0,88,0.00,,---,0.00,VWS V14.01,2013-03-22 10:23:00,
2013-03-22 05:28:00,7.1,4.3,30.09,NW,309,0.0,0.0,88,0.00,,---,0.00,VWS V14.01,2013-03-22 10:28:00,
2013-03-22 05:38:00,7.7,4.9,30.09,NW,309,0.0,0.0,88,0.00,,---,0.00,VWS V14.01,2013-03-22 10:38:00,
2013-03-22 05:43:00,8.6,6.0,30.10,NW,309,0.0,0.0,89,0.00,,---,0.00,VWS V14.01,2013-03-22 10:43:00,
2013-03-22 05:48:00,9.2,6.6,30.10,NW,309,0.0,0.0,89,0.00,,---,0.00,VWS V14.01,2013-03-22 10:48:00,
2013-03-22 05:53:00,9.8,7.2,30.10,NW,309,0.0,1.0,89,0.00,,---,0.00,VWS V14.01,2013-03-22 10:53:00,
2013-03-22 05:58:00,10.2,7.4,30.09,NW,309,0.0,0.0,88,0.00,,---,0.00,VWS V14.01,2013-03-22 10:58:00,
2013-03-22 06:03:00,11.0,8.4,30.10,NW,309,0.0,0.0,89,0.00,,---,0.00,VWS V14.01,2013-03-22 11:03:00,
2013-03-22 06:08:00,11.6,8.7,30.10,NW,309,0.0,0.0,88,0.00,,---,0.00,VWS V14.01,2013-03-22 11:08:00,
2013-03-22 06:18:00,11.3,8.2,30.10,NW,309,0.0,0.0,87,0.00,,---,0.00,VWS V14.01,2013-03-22 11:18:00,
2013-03-22 06:23:00,10.8,7.7,30.10,NW,309,0.0,0.0,87,0.00,,---,0.00,VWS V14.01,2013-03-22 11:23:00,
2013-03-22 06:28:00,10.3,7.2,30.10,NW,309,0.0,0.0,87,0.00,,---,0.00,VWS V14.01,2013-03-22 11:28:00,
2013-03-22 06:33:00,9.9,6.6,30.10,NW,309,0.0,0.0,86,0.00,,---,0.00,VWS V14.01,2013-03-22 11:33:00,
2013-03-22 06:43:00,10.1,7.0,30.11,NW,309,0.0,0.0,87,0.00,,---,0.00,VWS V14.01,2013-03-22 11:43:00,
2013-03-22 06:48:00,10.1,7.0,30.10,NW,309,0.0,0.0,87,0.00,,---,0.00,VWS V14.01,2013-03-22 11:48:00,
2013-03-22 06:53:00,10.2,7.4,30.11,NW,309,0.0,0.0,88,0.00,,---,0.00,VWS V14.01,2013-03-22 11:53:00,
2013-03-22 06:58:00,10.2,7.4,30.11,NW,309,0.0,0.0,88,0.00,,---,0.00,VWS V14.01,2013-03-22 11:58:00,
2013-03-22 07:08:00,10.2,7.4,30.11,NW,309,0.0,0.0,88,0.00,,---,0.00,VWS V14.01,2013-03-22 12:08:00,
2013-03-22 07:18:00,9.9,7.1,30.11,NW,309,0.0,0.0,88,0.00,,---,0.00,VWS V14.01,2013-03-22 12:18:00,
2013-03-22 07:23:00,9.9,7.1,30.11,NW,309,0.0,0.0,88,0.00,,---,0.00,VWS V14.01,2013-03-22 12:23:00,
2013-03-22 07:28:00,9.9,7.1,30.11,NW,309,0.0,0.0,88,0.00,,---,0.00,VWS V14.01,2013-03-22 12:28:00,
2013-03-22 07:38:00,10.1,7.3,30.12,NW,309,0.0,0.0,88,0.00,,---,0.00,VWS V14.01,2013-03-22 12:38:00,
2013-03-22 07:43:00,10.4,7.6,30.12,NW,309,0.0,0.0,88,0.00,,---,0.00,VWS V14.01,2013-03-22 12:43:00,
2013-03-22 07:48:00,10.6,7.8,30.12,NW,309,0.0,0.0,88,0.00,,---,0.00,VWS V14.01,2013-03-22 12:48:00,
2013-03-22 07:58:00,11.4,8.5,30.12,NW,309,0.0,0.0,88,0.00,,---,0.00,VWS V14.01,2013-03-22 12:58:00,
2013-03-22 08:03:00,11.7,8.8,30.12,NW,309,0.0,0.0,88,0.00,,---,0.00,VWS V14.01,2013-03-22 13:03:00,
2013-03-22 08:08:00,11.9,9.0,30.12,NW,309,0.0,0.0,88,0.00,,---,0.00,VWS V14.01,2013-03-22 13:08:00,
2013-03-22 08:13:00,12.3,9.4,30.12,NW,309,0.0,0.0,88,0.00,,---,0.00,VWS V14.01,2013-03-22 13:13:00,
2013-03-22 08:18:00,12.7,9.8,30.12,NW,309,0.0,0.0,88,0.00,,---,0.00,VWS V14.01,2013-03-22 13:18:00,
2013-03-22 08:23:00,13.4,10.5,30.12,NW,309,2.0,2.0,88,0.00,,---,0.00,VWS V14.01,2013-03-22 13:23:00,
2013-03-22 08:28:00,14.4,11.5,30.12,NW,309,2.0,2.0,88,0.00,,---,0.00,VWS V14.01,2013-03-22 13:28:00,
2013-03-22 08:38:00,16.0,13.1,30.12,NW,309,0.0,2.0,88,0.00,,---,0.00,VWS V14.01,2013-03-22 13:38:00,
2013-03-22 08:43:00,17.1,14.2,30.12,NW,309,0.0,2.0,88,0.00,,---,0.00,VWS V14.01,2013-03-22 13:43:00,
2013-03-22 08:48:00,18.3,15.4,30.12,NW,309,0.0,0.0,88,0.00,,---,0.00,VWS V14.01,2013-03-22 13:48:00,
2013-03-22 08:53:00,19.2,16.0,30.11,NW,309,0.0,0.0,87,0.00,,---,0.00,VWS V14.01,2013-03-22 13:53:00,
2013-03-22 08:58:00,19.7,16.2,30.11,NW,309,0.0,0.0,86,0.00,,---,0.00,VWS V14.01,2013-03-22 13:58:00,
2013-03-22 09:08:00,21.1,17.3,30.11,NW,309,0.0,0.0,85,0.00,,---,0.00,VWS V14.01,2013-03-22 14:08:00,
2013-03-22 09:13:00,21.6,17.5,30.11,NW,309,0.0,0.0,84,0.00,,---,0.00,VWS V14.01,2013-03-22 14:13:00,
2013-03-22 09:18:00,22.1,17.7,30.11,NW,309,0.0,0.0,83,0.00,,---,0.00,VWS V14.01,2013-03-22 14:18:00,
2013-03-22 09:23:00,22.5,17.9,30.11,NW,309,0.0,0.0,82,0.00,,---,0.00,VWS V14.01,2013-03-22 14:23:00,
2013-03-22 09:28:00,22.9,18.2,30.11,NW,309,0.0,0.0,82,0.00,,---,0.00,VWS V14.01,2013-03-22 14:28:00,
2013-03-22 09:33:00,23.4,18.4,30.11,NW,309,0.0,1.0,81,0.00,,---,0.00,VWS V14.01,2013-03-22 14:33:00,
2013-03-22 09:38:00,23.4,17.9,30.11,NW,309,2.0,3.0,79,0.00,,---,0.00,VWS V14.01,2013-03-22 14:38:00,
2013-03-22 09:43:00,22.9,17.4,30.11,NW,309,2.0,3.0,79,0.00,,---,0.00,VWS V14.01,2013-03-22 14:43:00,
2013-03-22 09:48:00,23.0,17.8,30.11,NW,309,0.0,2.0,80,0.00,,---,0.00,VWS V14.01,2013-03-22 14:48:00,
2013-03-22 09:53:00,23.6,18.4,30.11,NW,309,0.0,0.0,80,0.00,,---,0.00,VWS V14.01,2013-03-22 14:53:00,
2013-03-22 09:58:00,24.3,18.4,30.11,NW,309,0.0,0.0,78,0.00,,---,0.00,VWS V14.01,2013-03-22 14:58:00,
2013-03-22 10:08:00,24.5,18.3,30.10,NW,308,3.0,4.0,77,0.00,,---,0.00,VWS V14.01,2013-03-22 15:08:00,
2013-03-22 10:13:00,24.6,18.4,30.10,West,268,3.0,5.0,77,0.00,,---,0.00,VWS V14.01,2013-03-22 15:13:00,
2013-03-22 10:18:00,24.9,18.7,30.10,WNW,302,0.0,5.0,77,0.00,,---,0.00,VWS V14.01,2013-03-22 15:18:00,
2013-03-22 10:23:00,25.8,19.6,30.10,NNW,343,3.0,3.0,77,0.00,,---,0.00,VWS V14.01,2013-03-22 15:23:00,
2013-03-22 10:28:00,26.5,19.7,30.11,NE,36,0.0,3.0,75,0.00,,---,0.00,VWS V14.01,2013-03-22 15:28:00,
2013-03-22 10:38:00,27.1,19.9,30.11,North,351,2.0,5.0,74,0.00,,---,0.00,VWS V14.01,2013-03-22 15:38:00,
2013-03-22 10:43:00,26.9,19.1,30.11,NNE,27,1.0,5.0,72,0.00,,---,0.00,VWS V14.01,2013-03-22 15:43:00,
2013-03-22 10:48:00,26.9,19.1,30.11,North,355,3.0,4.0,72,0.00,,---,0.00,VWS V14.01,2013-03-22 15:48:00,
2013-03-22 10:53:00,26.9,19.4,30.11,NNE,19,2.0,4.0,73,0.00,,---,0.00,VWS V14.01,2013-03-22 15:53:00,
2013-03-22 10:58:00,27.2,19.7,30.11,North,355,0.0,3.0,73,0.00,,---,0.00,VWS V14.01,2013-03-22 15:58:00,
2013-03-22 11:08:00,27.9,20.4,30.11,North,355,0.0,2.0,73,0.00,,---,0.00,VWS V14.01,2013-03-22 16:08:00,
2013-03-22 11:13:00,27.6,20.1,30.11,North,355,1.0,5.0,73,0.00,,---,0.00,VWS V14.01,2013-03-22 16:13:00,
2013-03-22 11:18:00,27.5,20.3,30.11,NNE,27,2.0,5.0,74,0.00,,---,0.00,VWS V14.01,2013-03-22 16:18:00,
2013-03-22 11:23:00,27.5,20.6,30.11,NNE,13,4.0,4.0,75,0.00,,---,0.00,VWS V14.01,2013-03-22 16:23:00,
2013-03-22 11:28:00,27.7,20.5,30.11,North,10,0.0,4.0,74,0.00,,---,0.00,VWS V14.01,2013-03-22 16:28:00,
2013-03-22 11:33:00,27.7,20.2,30.11,North,360,0.0,3.0,73,0.00,,---,0.00,VWS V14.01,2013-03-22 16:33:00,
2013-03-22 11:38:00,27.9,20.7,30.11,North,5,3.0,4.0,74,0.00,,---,0.00,VWS V14.01,2013-03-22 16:38:00,
2013-03-22 11:43:00,28.0,20.5,30.11,North,5,0.0,3.0,73,0.00,,---,0.00,VWS V14.01,2013-03-22 16:43:00,
2013-03-22 11:48:00,28.3,20.8,30.11,NNW,338,0.0,3.0,73,0.00,,---,0.00,VWS V14.01,2013-03-22 16:48:00,
2013-03-22 11:53:00,28.9,21.4,30.10,NNW,338,0.0,2.0,73,0.00,,---,0.00,VWS V14.01,2013-03-22 16:53:00,
2013-03-22 11:58:00,28.4,20.2,30.10,ENE,74,0.0,5.0,71,0.00,,---,0.00,VWS V14.01,2013-03-22 16:58:00,
2013-03-22 12:03:00,27.8,20.0,30.10,NE,47,0.0,5.0,72,0.00,,---,0.00,VWS V14.01,2013-03-22 17:03:00,
2013-03-22 12:13:00,28.4,20.9,30.10,NNW,340,0.0,3.0,73,0.00,,---,0.00,VWS V14.01,2013-03-22 17:13:00,
2013-03-22 12:18:00,28.6,20.7,30.10,NW,312,0.0,3.0,72,0.00,,---,0.00,VWS V14.01,2013-03-22 17:18:00,
2013-03-22 12:23:00,28.8,20.6,30.10,NW,311,0.0,2.0,71,0.00,,---,0.00,VWS V14.01,2013-03-22 17:23:00,
2013-03-22 12:28:00,29.1,20.9,30.09,East,92,4.0,4.0,71,0.00,,---,0.00,VWS V14.01,2013-03-22 17:28:00,
2013-03-22 12:38:00,27.9,20.4,30.09,ENE,62,0.0,5.0,73,0.00,,---,0.00,VWS V14.01,2013-03-22 17:38:00,
2013-03-22 12:43:00,28.1,20.9,30.09,ENE,69,3.0,3.0,74,0.01,,---,0.01,VWS V14.01,2013-03-22 17:43:00,
2013-03-22 12:48:00,28.3,21.4,30.10,ENE,68,0.0,3.0,75,0.01,,---,0.01,VWS V14.01,2013-03-22 17:48:00,
2013-03-22 12:53:00,28.1,20.9,30.09,ENE,71,0.0,6.0,74,0.01,,---,0.01,VWS V14.01,2013-03-22 17:53:00,
2013-03-22 13:03:00,27.8,20.6,30.09,ENE,71,1.0,7.0,74,0.01,,---,0.01,VWS V14.01,2013-03-22 18:03:00,
2013-03-22 13:08:00,27.9,21.3,30.09,ENE,71,0.0,5.0,76,0.01,,---,0.01,VWS V14.01,2013-03-22 18:08:00,
2013-03-22 13:13:00,27.8,21.2,30.09,ENE,70,0.0,5.0,76,0.01,,---,0.01,VWS V14.01,2013-03-22 18:13:00,
2013-03-22 13:18:00,27.8,21.5,30.09,NE,37,0.0,3.0,77,0.01,,---,0.01,VWS V14.01,2013-03-22 18:18:00,
2013-03-22 13:23:00,27.7,21.4,30.10,East,86,2.0,4.0,77,0.01,,---,0.01,VWS V14.01,2013-03-22 18:23:00,
2013-03-22 13:28:00,27.8,21.9,30.09,North,360,5.0,5.0,78,0.01,,---,0.01,VWS V14.01,2013-03-22 18:28:00,
2013-03-22 13:33:00,27.6,21.6,30.09,North,360,0.0,5.0,78,0.01,,---,0.01,VWS V14.01,2013-03-22 18:33:00,
2013-03-22 13:38:00,27.8,22.1,30.09,North,360,0.0,0.0,79,0.01,,---,0.01,VWS V14.01,2013-03-22 18:38:00,
2013-03-22 13:43:00,28.0,22.0,30.09,North,360,0.0,1.0,78,0.01,,---,0.01,VWS V14.01,2013-03-22 18:43:00,
2013-03-22 13:48:00,28.0,22.0,30.09,ENE,78,1.0,3.0,78,0.00,,---,0.01,VWS V14.01,2013-03-22 18:48:00,
2013-03-22 13:53:00,27.9,22.2,30.10,North,5,4.0,4.0,79,0.00,,---,0.01,VWS V14.01,2013-03-22 18:53:00,
2013-03-22 13:58:00,27.9,22.2,30.10,NNE,13,0.0,4.0,79,0.00,,---,0.01,VWS V14.01,2013-03-22 18:58:00,
2013-03-22 14:08:00,27.5,21.9,30.10,East,79,3.0,5.0,79,0.00,,---,0.01,VWS V14.01,2013-03-22 19:08:00,
2013-03-22 14:18:00,27.4,22.0,30.09,NE,51,0.0,2.0,80,0.00,,---,0.01,VWS V14.01,2013-03-22 19:18:00,
2013-03-22 14:23:00,27.5,21.9,30.10,ENE,59,0.0,5.0,79,0.00,,---,0.01,VWS V14.01,2013-03-22 19:23:00,
2013-03-22 14:28:00,27.7,22.0,30.09,NE,46,0.0,1.0,79,0.00,,---,0.01,VWS V14.01,2013-03-22 19:28:00,
2013-03-22 14:33:00,28.1,22.1,30.09,ENE,65,0.0,2.0,78,0.00,,---,0.01,VWS V14.01,2013-03-22 19:33:00,
2013-03-22 14:43:00,27.9,21.6,30.09,East,82,1.0,3.0,77,0.00,,---,0.01,VWS V14.01,2013-03-22 19:43:00,
2013-03-22 14:48:00,27.8,21.9,30.09,ENE,68,2.0,5.0,78,0.00,,---,0.01,VWS V14.01,2013-03-22 19:48:00,
2013-03-22 14:53:00,27.6,21.6,30.09,ENE,70,3.0,7.0,78,0.00,,---,0.01,VWS V14.01,2013-03-22 19:53:00,
2013-03-22 15:03:00,27.8,21.9,30.09,ENE,72,1.0,4.0,78,0.00,,---,0.01,VWS V14.01,2013-03-22 20:03:00,
2013-03-22 15:08:00,28.1,21.8,30.09,ENE,67,0.0,2.0,77,0.00,,---,0.01,VWS V14.01,2013-03-22 20:08:00,
2013-03-22 15:13:00,28.4,22.1,30.09,ENE,67,0.0,2.0,77,0.00,,---,0.01,VWS V14.01,2013-03-22 20:13:00,
2013-03-22 15:18:00,28.6,22.0,30.09,ENE,68,2.0,3.0,76,0.00,,---,0.01,VWS V14.01,2013-03-22 20:18:00,
2013-03-22 15:28:00,28.8,21.9,30.09,ENE,68,1.0,2.0,75,0.00,,---,0.01,VWS V14.01,2013-03-22 20:28:00,
2013-03-22 15:33:00,28.7,21.8,30.09,ENE,68,2.0,3.0,75,0.00,,---,0.01,VWS V14.01,2013-03-22 20:33:00,
2013-03-22 15:43:00,28.7,22.1,30.08,ENE,71,0.0,2.0,76,0.00,,---,0.01,VWS V14.01,2013-03-22 20:43:00,
2013-03-22 15:48:00,28.9,22.3,30.09,ENE,66,1.0,3.0,76,0.00,,---,0.01,VWS V14.01,2013-03-22 20:48:00,
2013-03-22 15:53:00,28.8,22.2,30.09,ENE,60,4.0,7.0,76,0.00,,---,0.01,VWS V14.01,2013-03-22 20:53:00,
2013-03-22 15:58:00,28.6,22.3,30.09,NE,55,3.0,5.0,77,0.00,,---,0.01,VWS V14.01,2013-03-22 20:58:00,
2013-03-22 16:03:00,28.5,22.2,30.09,ENE,70,1.0,5.0,77,0.00,,---,0.01,VWS V14.01,2013-03-22 21:03:00,
2013-03-22 16:08:00,28.4,21.8,30.09,ENE,69,0.0,3.0,76,0.00,,---,0.01,VWS V14.01,2013-03-22 21:08:00,
2013-03-22 16:18:00,28.4,21.8,30.09,ENE,67,0.0,5.0,76,0.00,,---,0.01,VWS V14.01,2013-03-22 21:18:00,
2013-03-22 16:23:00,28.6,22.0,30.09,ENE,62,0.0,2.0,76,0.00,,---,0.01,VWS V14.01,2013-03-22 21:23:00,
2013-03-22 16:28:00,28.6,22.0,30.09,ENE,64,0.0,5.0,76,0.00,,---,0.01,VWS V14.01,2013-03-22 21:28:00,
2013-03-22 16:33:00,28.7,22.1,30.09,ENE,71,0.0,4.0,76,0.00,,---,0.01,VWS V14.01,2013-03-22 21:33:00,
2013-03-22 16:43:00,29.0,22.1,30.09,NNE,22,0.0,1.0,75,0.00,,---,0.01,VWS V14.01,2013-03-22 21:43:00,
2013-03-22 16:53:00,28.8,21.6,30.10,NNE,33,0.0,4.0,74,0.00,,---,0.01,VWS V14.01,2013-03-22 21:53:00,
2013-03-22 16:58:00,28.7,21.5,30.10,NE,34,0.0,3.0,74,0.00,,---,0.01,VWS V14.01,2013-03-22 21:58:00,
2013-03-22 17:08:00,28.5,21.3,30.10,ENE,76,0.0,6.0,74,0.00,,---,0.01,VWS V14.01,2013-03-22 22:08:00,
2013-03-22 17:13:00,28.5,21.3,30.10,ENE,76,0.0,2.0,74,0.00,,---,0.01,VWS V14.01,2013-03-22 22:13:00,
2013-03-22 17:18:00,28.6,21.7,30.10,NE,43,3.0,6.0,75,0.00,,---,0.01,VWS V14.01,2013-03-22 22:18:00,
2013-03-22 17:23:00,28.5,21.3,30.10,NNE,29,0.0,3.0,74,0.00,,---,0.01,VWS V14.01,2013-03-22 22:23:00,
2013-03-22 17:33:00,28.5,21.6,30.11,ENE,57,2.0,3.0,75,0.00,,---,0.01,VWS V14.01,2013-03-22 22:33:00,
2013-03-22 17:43:00,28.2,21.6,30.10,ENE,61,0.0,5.0,76,0.00,,---,0.01,VWS V14.01,2013-03-22 22:43:00,
2013-03-22 17:53:00,28.0,21.4,30.11,NE,40,0.0,4.0,76,0.00,,---,0.01,VWS V14.01,2013-03-22 22:53:00,
2013-03-22 17:58:00,28.0,21.4,30.11,NNE,25,0.0,5.0,76,0.00,,---,0.01,VWS V14.01,2013-03-22 22:58:00,
2013-03-22 18:03:00,27.9,21.3,30.11,NNE,25,0.0,2.0,76,0.00,,---,0.01,VWS V14.01,2013-03-22 23:03:00,
2013-03-22 18:08:00,27.9,21.3,30.11,NNE,24,2.0,3.0,76,0.00,,---,0.01,VWS V14.01,2013-03-22 23:08:00,
2013-03-22 18:13:00,27.8,21.5,30.11,NNE,22,0.0,2.0,77,0.00,,---,0.01,VWS V14.01,2013-03-22 23:13:00,
2013-03-22 18:23:00,27.4,21.1,30.12,NE,44,0.0,5.0,77,0.00,,---,0.01,VWS V14.01,2013-03-22 23:23:00,
2013-03-22 18:33:00,26.9,21.0,30.12,East,82,0.0,1.0,78,0.00,,---,0.01,VWS V14.01,2013-03-22 23:33:00,
2013-03-22 18:38:00,26.7,20.8,30.12,ENE,60,0.0,5.0,78,0.00,,---,0.01,VWS V14.01,2013-03-22 23:38:00,
2013-03-22 18:48:00,26.6,20.7,30.12,North,360,0.0,0.0,78,0.00,,---,0.01,VWS V14.01,2013-03-22 23:48:00,
2013-03-22 18:58:00,26.5,20.6,30.12,North,360,0.0,0.0,78,0.00,,---,0.01,VWS V14.01,2013-03-22 23:58:00,
2013-03-22 19:03:00,26.3,20.4,30.12,NNE,33,1.0,2.0,78,0.00,,---,0.01,VWS V14.01,2013-03-23 00:03:00,
2013-03-22 19:08:00,26.1,20.5,30.12,East,92,1.0,3.0,79,0.00,,---,0.01,VWS V14.01,2013-03-23 00:08:00,
2013-03-22 19:13:00,25.9,20.3,30.12,East,92,0.0,1.0,79,0.00,,---,0.01,VWS V14.01,2013-03-23 00:13:00,
2013-03-22 19:18:00,25.7,20.1,30.12,East,91,0.0,0.0,79,0.00,,---,0.01,VWS V14.01,2013-03-23 00:18:00,
2013-03-22 19:23:00,25.4,19.8,30.12,East,92,0.0,0.0,79,0.00,,---,0.01,VWS V14.01,2013-03-23 00:23:00,
2013-03-22 19:28:00,25.1,19.8,30.12,East,92,0.0,0.0,80,0.00,,---,0.01,VWS V14.01,2013-03-23 00:28:00,
2013-03-22 19:33:00,24.7,19.4,30.12,East,91,0.0,0.0,80,0.00,,---,0.01,VWS V14.01,2013-03-23 00:33:00,
2013-03-22 19:43:00,23.5,18.5,30.12,East,92,0.0,0.0,81,0.00,,---,0.01,VWS V14.01,2013-03-23 00:43:00,
2013-03-22 19:48:00,23.0,18.3,30.12,East,92,0.0,0.0,82,0.00,,---,0.01,VWS V14.01,2013-03-23 00:48:00,
2013-03-22 19:53:00,22.6,17.9,30.12,East,91,0.0,0.0,82,0.00,,---,0.01,VWS V14.01,2013-03-23 00:53:00,
2013-03-22 19:58:00,22.1,17.7,30.12,East,91,0.0,0.0,83,0.00,,---,0.01,VWS V14.01,2013-03-23 00:58:00,
2013-03-22 20:03:00,21.6,17.2,30.12,East,92,0.0,0.0,83,0.00,,---,0.01,VWS V14.01,2013-03-23 01:03:00,
2013-03-22 20:08:00,21.1,16.8,30.12,East,92,0.0,0.0,83,0.00,,---,0.01,VWS V14.01,2013-03-23 01:08:00,
2013-03-22 20:13:00,20.7,16.6,30.12,East,91,0.0,0.0,84,0.00,,---,0.01,VWS V14.01,2013-03-23 01:13:00,
2013-03-22 20:18:00,20.3,16.2,30.12,East,91,0.0,0.0,84,0.00,,---,0.01,VWS V14.01,2013-03-23 01:18:00,
2013-03-22 20:23:00,19.7,15.7,30.12,East,92,0.0,0.0,84,0.00,,---,0.01,VWS V14.01,2013-03-23 01:23:00,
2013-03-22 20:28:00,19.4,15.6,30.13,East,92,0.0,0.0,85,0.00,,---,0.01,VWS V14.01,2013-03-23 01:28:00,
2013-03-22 20:33:00,19.0,15.2,30.13,East,91,0.0,0.0,85,0.00,,---,0.01,VWS V14.01,2013-03-23 01:33:00,
2013-03-22 20:38:00,18.6,15.1,30.13,East,92,0.0,0.0,86,0.00,,---,0.01,VWS V14.01,2013-03-23 01:38:00,
2013-03-22 20:48:00,17.9,14.4,30.13,East,91,0.0,0.0,86,0.00,,---,0.01,VWS V14.01,2013-03-23 01:48:00,
2013-03-22 20:53:00,17.5,14.0,30.13,East,91,0.0,0.0,86,0.00,,---,0.01,VWS V14.01,2013-03-23 01:53:00,
2013-03-22 21:03:00,16.9,13.7,30.13,East,92,0.0,0.0,87,0.00,,---,0.01,VWS V14.01,2013-03-23 02:03:00,
2013-03-22 21:08:00,16.7,13.5,30.13,East,92,0.0,0.0,87,0.00,,---,0.01,VWS V14.01,2013-03-23 02:08:00,
2013-03-22 21:13:00,16.4,13.5,30.13,East,91,0.0,0.0,88,0.00,,---,0.01,VWS V14.01,2013-03-23 02:13:00,
2013-03-22 21:18:00,16.1,13.2,30.13,East,92,0.0,0.0,88,0.00,,---,0.01,VWS V14.01,2013-03-23 02:18:00,
2013-03-22 21:23:00,15.9,13.0,30.13,East,92,0.0,0.0,88,0.00,,---,0.01,VWS V14.01,2013-03-23 02:23:00,
2013-03-22 21:33:00,15.4,12.5,30.13,East,92,0.0,0.0,88,0.00,,---,0.01,VWS V14.01,2013-03-23 02:33:00,
2013-03-22 21:38:00,15.2,12.3,30.14,East,92,0.0,0.0,88,0.00,,---,0.01,VWS V14.01,2013-03-23 02:38:00,
2013-03-22 21:43:00,15.0,12.4,30.13,East,92,0.0,0.0,89,0.00,,---,0.01,VWS V14.01,2013-03-23 02:43:00,
2013-03-22 21:48:00,14.8,12.1,30.13,East,91,0.0,0.0,89,0.00,,---,0.01,VWS V14.01,2013-03-23 02:48:00,
2013-03-22 21:53:00,14.5,11.9,30.14,East,92,0.0,0.0,89,0.00,,---,0.01,VWS V14.01,2013-03-23 02:53:00,
2013-03-22 21:58:00,14.3,11.7,30.14,East,92,0.0,0.0,89,0.00,,---,0.01,VWS V14.01,2013-03-23 02:58:00,
2013-03-22 22:03:00,14.0,11.4,30.13,East,92,0.0,0.0,89,0.00,,---,0.01,VWS V14.01,2013-03-23 03:03:00,
2013-03-22 22:08:00,13.9,11.3,30.13,East,92,0.0,0.0,89,0.00,,---,0.01,VWS V14.01,2013-03-23 03:08:00,
2013-03-22 22:13:00,13.8,11.2,30.14,East,92,0.0,0.0,89,0.00,,---,0.01,VWS V14.01,2013-03-23 03:13:00,
2013-03-22 22:18:00,13.7,11.1,30.14,East,92,0.0,0.0,89,0.00,,---,0.01,VWS V14.01,2013-03-23 03:18:00,
2013-03-22 22:23:00,13.4,10.8,30.13,East,91,0.0,0.0,89,0.00,,---,0.01,VWS V14.01,2013-03-23 03:23:00,
2013-03-22 22:28:00,13.2,10.6,30.14,East,91,0.0,0.0,89,0.00,,---,0.01,VWS V14.01,2013-03-23 03:28:00,
2013-03-22 22:38:00,12.7,10.1,30.14,East,92,0.0,0.0,89,0.00,,---,0.01,VWS V14.01,2013-03-23 03:38:00,
2013-03-22 22:43:00,12.6,10.0,30.14,East,91,0.0,0.0,89,0.00,,---,0.01,VWS V14.01,2013-03-23 03:43:00,
2013-03-22 22:48:00,12.6,10.0,30.14,East,91,0.0,0.0,89,0.00,,---,0.01,VWS V14.01,2013-03-23 03:48:00,
2013-03-22 22:53:00,12.4,9.8,30.14,East,92,0.0,0.0,89,0.00,,---,0.01,VWS V14.01,2013-03-23 03:53:00,
2013-03-22 22:58:00,12.3,9.7,30.14,East,91,0.0,0.0,89,0.00,,---,0.01,VWS V14.01,2013-03-23 03:58:00,
2013-03-22 23:03:00,12.1,9.5,30.14,East,91,0.0,0.0,89,0.00,,---,0.01,VWS V14.01,2013-03-23 04:03:00,
2013-03-22 23:13:00,11.7,9.1,30.13,East,92,0.0,0.0,89,0.00,,---,0.01,VWS V14.01,2013-03-23 04:13:00,
2013-03-22 23:18:00,11.6,9.0,30.14,East,92,0.0,0.0,89,0.00,,---,0.01,VWS V14.01,2013-03-23 04:18:00,
2013-03-22 23:23:00,11.5,8.9,30.14,East,92,0.0,0.0,89,0.00,,---,0.01,VWS V14.01,2013-03-23 04:23:00,
2013-03-22 23:28:00,11.4,8.8,30.14,East,91,0.0,0.0,89,0.00,,---,0.01,VWS V14.01,2013-03-23 04:28:00,
2013-03-22 23:33:00,11.4,8.8,30.14,East,91,0.0,0.0,89,0.00,,---,0.01,VWS V14.01,2013-03-23 04:33:00,
2013-03-22 23:38:00,11.3,8.7,30.14,East,91,0.0,0.0,89,0.00,,---,0.01,VWS V14.01,2013-03-23 04:38:00,
2013-03-22 23:43:00,11.2,8.6,30.14,East,92,0.0,0.0,89,0.00,,---,0.01,VWS V14.01,2013-03-23 04:43:00,
2013-03-22 23:48:00,11.0,8.4,30.14,East,92,0.0,0.0,89,0.00,,---,0.01,VWS V14.01,2013-03-23 04:48:00,
2013-03-22 23:53:00,11.2,8.6,30.14,East,92,0.0,0.0,89,0.00,,---,0.01,VWS V14.01,2013-03-23 04:53:00,
2013-03-22 23:58:00,11.2,8.6,30.14,East,91,0.0,0.0,89,0.00,,---,0.01,VWS V14.01,2013-03-23 04:58:00,